Riceville, Mississippi
Current Conditions -  °F | °C
As of 9:53 AM on Saturday 20 Dec 2014 (Local Time) from KGPT Reporting Station
Overcast Overcast  
Wind Chill: 50°   Ceiling: 700
Heat Index: 50°   Visibility: 10mi
Dew Point: 47°   Wind: 10mph
Humidity: 89%   Direction: 20°NNE
Pressure: 30.15"   Gusts: NA
Location:  30.7239°N, 89.1669°W
Report Text: KGPT 201553Z 02009KT 10SM BKN007 OVC042 10/08 A3015 RMK AO2 SLP208 T01000083
Loading
Personal Weather Stations






























Interactive Weather Map New forecast layout! Learn more

10-Day Weather Forecast

Advertisements
Track Severe Weather on mobile